Time;durP1;ratioP1;P1;durP2;ratioP2;P2;SDS_P1;SDS_P2;PMS_P1;PMS_P2;Temp;Humidity;BMP_temperature;BMP_pressure;BME280_temperature;BME280_humidity;BME280_pressure;Samples;Min_cycle;Max_cycle;Signal;HPM_P1;HPM_P2
2022/09/18 00:02:26;;;;;;;2.30;1.30;;;;;;;6.22;100.00;95757.50;10325299;28;20245;-75
2022/09/18 00:07:27;;;;;;;2.13;1.13;;;;;;;6.29;100.00;95740.28;10327082;28;20201;-76
2022/09/18 00:12:27;;;;;;;2.13;1.40;;;;;;;6.27;100.00;95750.06;10327035;28;20222;-76
2022/09/18 00:17:27;;;;;;;4.33;1.30;;;;;;;6.31;100.00;95732.34;10332229;28;20189;-76
2022/09/18 00:22:29;;;;;;;3.40;0.87;;;;;;;6.33;100.00;95752.03;10339776;28;20229;-76
2022/09/18 00:27:29;;;;;;;4.50;1.17;;;;;;;6.30;100.00;95735.94;10340532;28;20240;-76
2022/09/18 00:32:30;;;;;;;3.90;1.10;;;;;;;6.36;100.00;95741.31;10339759;28;20947;-76
2022/09/18 00:37:30;;;;;;;4.20;1.80;;;;;;;6.46;100.00;95745.59;10339938;28;20213;-76
2022/09/18 00:42:30;;;;;;;4.10;1.87;;;;;;;6.45;100.00;95750.00;10322359;28;20222;-76
2022/09/18 00:47:47;;;;;;;5.87;1.80;;;;;;;6.55;100.00;95760.28;10322271;28;20194;-76
2022/09/18 00:52:53;;;;;;;4.50;1.90;;;;;;;6.55;100.00;95758.47;10321266;28;20213;-75
2022/09/18 00:57:55;;;;;;;8.83;1.87;;;;;;;6.58;100.00;95754.75;10339550;28;20189;-76
2022/09/18 01:02:57;;;;;;;3.23;1.83;;;;;;;6.68;100.00;95765.06;10355621;28;20225;-75
2022/09/18 01:08:28;;;;;;;3.37;1.80;;;;;;;6.63;100.00;95760.34;10360881;28;20228;-76
2022/09/18 01:13:44;;;;;;;2.97;1.80;;;;;;;6.63;100.00;95770.75;10344655;28;20189;-75
2022/09/18 01:18:55;;;;;;;6.03;1.60;;;;;;;6.68;100.00;95775.47;10359778;28;20606;-75
2022/09/18 01:24:10;;;;;;;3.87;1.87;;;;;;;6.63;100.00;95770.75;10377958;28;20229;-75
2022/09/18 01:29:54;;;;;;;2.00;1.60;;;;;;;6.67;100.00;95774.66;10341552;28;20197;-76
2022/09/18 01:35:00;;;;;;;4.83;2.00;;;;;;;6.63;100.00;95773.34;10339067;28;20704;-75
2022/09/18 01:40:10;;;;;;;3.13;1.90;;;;;;;6.69;100.00;95797.91;10339130;28;20274;-75
2022/09/18 01:45:15;;;;;;;3.20;1.60;;;;;;;6.64;100.00;95800.19;10338996;28;20216;-75
2022/09/18 01:50:17;;;;;;;1.43;1.30;;;;;;;6.50;100.00;95786.75;10338700;28;20271;-76
2022/09/18 01:55:21;;;;;;;4.03;1.67;;;;;;;6.48;100.00;95783.50;10354983;28;20561;-76
2022/09/18 02:00:24;;;;;;;4.00;1.10;;;;;;;6.53;100.00;95775.25;10338850;28;20225;-76
2022/09/18 02:05:31;;;;;;;1.40;1.30;;;;;;;6.47;100.00;95768.84;10338119;28;20674;-76
2022/09/18 02:10:34;;;;;;;0.80;0.80;;;;;;;6.51;100.00;95771.97;10354383;28;20240;-76
2022/09/18 02:15:38;;;;;;;1.47;0.90;;;;;;;6.48;100.00;95773.09;10337897;28;20188;-76
2022/09/18 02:20:45;;;;;;;0.80;0.80;;;;;;;6.49;100.00;95781.72;10338366;28;20569;-75
2022/09/18 02:25:53;;;;;;;1.53;1.10;;;;;;;6.49;100.00;95773.91;10337528;28;20193;-76
2022/09/18 02:30:53;;;;;;;1.37;0.93;;;;;;;6.57;100.00;95787.78;10338326;28;20200;-76
2022/09/18 02:36:02;;;;;;;1.67;1.40;;;;;;;6.53;100.00;95788.25;10353019;28;20579;-75
2022/09/18 02:41:33;;;;;;;3.37;1.80;;;;;;;6.52;100.00;95795.22;10370194;28;20221;-75
2022/09/18 02:47:09;;;;;;;3.30;2.10;;;;;;;6.49;100.00;95795.53;10336762;28;20197;-75
2022/09/18 02:52:17;;;;;;;3.77;2.20;;;;;;;6.51;100.00;95806.63;10351990;28;20260;-76
2022/09/18 02:57:25;;;;;;;8.90;2.70;;;;;;;6.48;100.00;95809.53;10336357;28;20189;-75
2022/09/18 03:02:26;;;;;;;8.77;3.40;;;;;;;6.47;100.00;95810.47;10349304;28;20245;-75
2022/09/18 03:07:27;;;;;;;10.77;4.57;;;;;;;6.46;100.00;95813.25;10346789;28;20199;-75
2022/09/18 03:12:29;;;;;;;5.83;4.27;;;;;;;6.50;100.00;95815.38;10343403;28;20189;-76
2022/09/18 03:17:29;;;;;;;20.17;5.63;;;;;;;6.47;100.00;95823.50;10344601;28;20706;-75
2022/09/18 03:22:30;;;;;;;12.17;5.13;;;;;;;6.43;100.00;95845.56;10361437;28;20217;-76
2022/09/18 03:27:30;;;;;;;11.47;5.50;;;;;;;6.47;100.00;95838.31;10344251;28;20247;-75
2022/09/18 03:32:31;;;;;;;8.60;4.80;;;;;;;6.47;100.00;95846.09;10343660;28;20185;-76
2022/09/18 03:37:31;;;;;;;9.33;4.67;;;;;;;6.41;100.00;95852.72;10344431;28;20296;-74
2022/09/18 03:42:33;;;;;;;12.20;3.40;;;;;;;6.45;100.00;95837.63;10343647;28;20699;-74
2022/09/18 03:47:34;;;;;;;7.57;3.60;;;;;;;6.47;100.00;95851.31;10343470;28;20185;-75
2022/09/18 03:52:35;;;;;;;9.27;3.20;;;;;;;6.38;100.00;95855.63;10342796;28;20548;-75
2022/09/18 03:57:45;;;;;;;9.13;3.60;;;;;;;6.32;100.00;95872.66;10343609;28;20186;-75
2022/09/18 04:02:55;;;;;;;9.30;3.40;;;;;;;6.30;100.00;95865.97;10346209;28;20217;-75
2022/09/18 04:08:04;;;;;;;17.77;4.20;;;;;;;6.29;100.00;95875.53;10367816;28;20288;-74
2022/09/18 04:13:31;;;;;;;14.07;4.23;;;;;;;6.33;100.00;95878.69;10349969;28;20200;-74
2022/09/18 04:18:37;;;;;;;14.20;4.37;;;;;;;6.31;100.00;95862.41;10349851;28;20185;-75
2022/09/18 04:23:39;;;;;;;10.27;3.43;;;;;;;6.30;100.00;95872.00;10349462;28;20296;-74
2022/09/18 04:28:39;;;;;;;12.37;3.77;;;;;;;6.31;100.00;95870.19;10350282;28;20382;-75
2022/09/18 04:33:41;;;;;;;14.83;4.07;;;;;;;6.28;100.00;95871.34;10349028;28;20189;-74
2022/09/18 04:38:42;;;;;;;13.33;3.77;;;;;;;6.23;100.00;95891.75;10350196;28;20205;-74
2022/09/18 04:43:43;;;;;;;13.73;4.30;;;;;;;6.24;100.00;95890.78;10349109;28;21004;-73
2022/09/18 04:48:46;;;;;;;14.87;4.10;;;;;;;6.23;100.00;95892.59;10349843;28;20220;-74
2022/09/18 04:53:48;;;;;;;12.30;4.03;;;;;;;6.22;100.00;95895.34;10333456;28;20185;-74
2022/09/18 04:58:50;;;;;;;13.50;3.97;;;;;;;6.24;100.00;95909.00;10366849;28;20235;-74
2022/09/18 05:03:50;;;;;;;14.03;4.73;;;;;;;6.22;100.00;95929.16;10369799;28;20586;-74
2022/09/18 05:09:01;;;;;;;11.77;3.67;;;;;;;6.27;100.00;95926.91;10357006;28;20197;-74
2022/09/18 05:14:01;;;;;;;13.10;3.40;;;;;;;6.20;100.00;95931.06;10356159;28;20177;-74
2022/09/18 05:19:06;;;;;;;9.33;3.27;;;;;;;6.19;100.00;95916.44;10356374;28;20197;-74
2022/09/18 05:24:06;;;;;;;17.57;3.53;;;;;;;6.21;100.00;95917.91;10373566;28;20570;-74
2022/09/18 05:29:07;;;;;;;13.27;3.50;;;;;;;6.14;100.00;95923.84;10356190;28;20205;-74
2022/09/18 05:34:07;;;;;;;12.73;3.33;;;;;;;6.17;100.00;95923.56;10355252;28;20657;-74
2022/09/18 05:39:09;;;;;;;12.87;4.10;;;;;;;6.15;100.00;95935.91;10356082;28;20193;-74
2022/09/18 05:44:09;;;;;;;9.57;3.07;;;;;;;6.24;100.00;95932.41;10354876;28;20589;-74
2022/09/18 05:49:10;;;;;;;15.73;3.10;;;;;;;6.31;100.00;95936.06;10355434;28;20228;-74
2022/09/18 05:54:11;;;;;;;11.73;2.90;;;;;;;6.37;100.00;95948.47;10372370;28;20324;-73
2022/09/18 05:59:14;;;;;;;6.77;2.03;;;;;;;6.42;100.00;95943.63;10355123;28;20229;-75
2022/09/18 06:04:17;;;;;;;9.30;2.90;;;;;;;6.54;100.00;95935.56;10354034;28;20299;-75
2022/09/18 06:09:24;;;;;;;10.27;2.30;;;;;;;6.68;100.00;95944.66;10354632;28;20200;-75
2022/09/18 06:14:25;;;;;;;9.37;2.10;;;;;;;6.69;100.00;95938.47;10353339;28;20189;-75
2022/09/18 06:19:25;;;;;;;5.27;2.57;;;;;;;6.76;100.00;95945.50;10353708;28;20232;-75
2022/09/18 06:24:26;;;;;;;9.10;2.70;;;;;;;6.86;100.00;95939.41;10371607;28;20263;-75
2022/09/18 06:29:38;;;;;;;11.80;2.67;;;;;;;6.79;100.00;95934.78;10354225;28;20669;-76
2022/09/18 06:34:45;;;;;;;12.10;2.47;;;;;;;6.83;100.00;95934.50;10352588;28;20213;-75
2022/09/18 06:39:47;;;;;;;11.57;2.43;;;;;;;6.71;100.00;95944.34;10353819;28;20657;-75
2022/09/18 06:45:07;;;;;;;9.57;2.63;;;;;;;6.82;100.00;95959.72;10353280;28;20773;-75
2022/09/18 06:50:08;;;;;;;13.90;2.23;;;;;;;6.82;100.00;95956.31;10352568;28;20232;-74
2022/09/18 06:55:08;;;;;;;9.57;3.50;;;;;;;6.84;100.00;95956.97;10352471;28;20240;-74
2022/09/18 07:00:09;;;;;;;7.27;2.40;;;;;;;7.15;100.00;95959.91;10370295;28;20725;-74
2022/09/18 07:05:12;;;;;;;12.27;2.63;;;;;;;7.12;100.00;95965.44;10324934;28;20571;-74
2022/09/18 07:10:14;;;;;;;6.83;2.63;;;;;;;6.96;100.00;95966.16;10327927;28;20563;-74
2022/09/18 07:15:18;;;;;;;10.70;2.40;;;;;;;7.08;100.00;95967.53;10311431;28;20225;-74
2022/09/18 07:20:19;;;;;;;6.13;3.03;;;;;;;7.13;100.00;95970.50;10328781;28;20528;-74
2022/09/18 07:25:21;;;;;;;11.83;2.57;;;;;;;7.25;100.00;95978.88;10310960;28;20230;-74
2022/09/18 07:30:21;;;;;;;6.63;2.33;;;;;;;7.24;100.00;95982.47;10327767;28;20189;-74
2022/09/18 07:35:22;;;;;;;11.27;2.90;;;;;;;7.29;100.00;95976.81;10310494;28;20210;-74
2022/09/18 07:40:24;;;;;;;13.47;2.10;;;;;;;7.27;100.00;95987.38;10310307;28;20193;-74
2022/09/18 07:45:40;;;;;;;7.77;1.80;;;;;;;7.61;100.00;95990.94;10310668;28;20198;-74
2022/09/18 07:50:41;;;;;;;9.23;2.03;;;;;;;7.65;100.00;95998.31;10327692;28;20552;-74
2022/09/18 07:55:46;;;;;;;11.23;2.93;;;;;;;7.46;100.00;95988.13;10310313;28;20242;-74
2022/09/18 08:00:47;;;;;;;5.73;1.67;;;;;;;7.63;100.00;95986.41;10309639;28;20240;-74
2022/09/18 08:05:51;;;;;;;6.73;1.90;;;;;;;7.60;100.00;95995.34;10325795;28;20213;-73
2022/09/18 08:10:54;;;;;;;7.97;1.67;;;;;;;7.97;100.00;95986.38;10310106;28;20182;-72
2022/09/18 08:16:09;;;;;;;8.93;1.97;;;;;;;8.24;100.00;95991.50;10327105;28;20205;-72
2022/09/18 08:21:28;;;;;;;12.97;2.07;;;;;;;8.36;100.00;95990.22;10309861;28;20217;-73
2022/09/18 08:26:30;;;;;;;6.97;1.87;;;;;;;8.21;100.00;95987.44;10327092;28;20217;-74
2022/09/18 08:31:31;;;;;;;7.47;2.00;;;;;;;8.61;100.00;95980.66;10326539;28;20355;-73
2022/09/18 08:36:32;;;;;;;8.83;2.20;;;;;;;8.57;100.00;95977.56;10309224;28;20217;-73
2022/09/18 08:42:06;;;;;;;13.77;4.30;;;;;;;8.38;100.00;95973.44;10317052;28;20218;-73
2022/09/18 08:47:16;;;;;;;8.77;2.33;;;;;;;8.56;100.00;95986.38;10317681;28;20260;-74
2022/09/18 08:52:22;;;;;;;6.63;2.07;;;;;;;9.01;100.00;95979.03;10316859;28;20198;-73
2022/09/18 08:57:43;;;;;;;5.70;1.70;;;;;;;9.40;100.00;95970.47;10302823;28;20241;-73
2022/09/18 09:02:52;;;;;;;10.63;1.60;;;;;;;10.40;100.00;95945.50;10316988;28;20252;-73
2022/09/18 09:08:11;;;;;;;4.00;1.37;;;;;;;10.65;100.00;95925.19;10319584;28;20196;-73
2022/09/18 09:13:23;;;;;;;5.07;1.30;;;;;;;10.45;100.00;95950.22;10374104;28;20238;-73
2022/09/18 09:18:44;;;;;;;6.75;1.83;;;;;;;9.73;100.00;95933.75;10356876;28;20197;-73
2022/09/18 09:24:07;;;;;;;8.07;1.30;;;;;;;11.16;100.00;95914.06;10356195;28;20231;-73
2022/09/18 09:29:46;;;;;;;6.97;1.58;;;;;;;12.05;98.67;95889.59;10237543;28;20203;-73
2022/09/18 09:35:08;;;;;;;6.10;1.98;;;;;;;10.61;99.78;95902.97;10331877;28;20217;-73
2022/09/18 09:40:21;;;;;;;7.30;1.70;;;;;;;10.75;100.00;95906.63;10356580;28;20556;-73
2022/09/18 09:45:28;;;;;;;6.53;0.88;;;;;;;12.60;89.65;95852.28;10373205;28;20253;-73
2022/09/18 09:51:21;;;;;;;7.95;1.67;;;;;;;12.74;86.65;95861.91;10354010;28;20667;-73
2022/09/18 09:56:35;;;;;;;13.27;1.83;;;;;;;11.31;92.20;95894.91;10333079;28;20193;-74
2022/09/18 10:01:48;;;;;;;9.27;1.67;;;;;;;11.30;92.23;95890.66;10354259;28;20736;-73
2022/09/18 10:06:55;;;;;;;5.32;1.40;;;;;;;12.29;87.74;95864.75;10358765;28;20220;-73
2022/09/18 10:12:19;;;;;;;5.63;1.60;;;;;;;11.07;98.08;95933.47;10338255;28;20281;-74
2022/09/18 10:17:24;;;;;;;6.13;1.83;;;;;;;10.40;100.00;95960.38;10354418;28;20578;-73
2022/09/18 10:22:26;;;;;;;5.65;2.25;;;;;;;11.12;100.00;95960.00;10337500;28;20307;-74
2022/09/18 10:27:26;;;;;;;6.40;1.30;;;;;;;11.31;100.00;95945.53;10337810;28;20189;-73
2022/09/18 10:32:40;;;;;;;4.82;1.60;;;;;;;10.55;100.00;95924.63;10353309;28;20681;-74
2022/09/18 10:37:50;;;;;;;5.45;1.30;;;;;;;11.32;100.00;95928.00;10353416;28;20247;-73
2022/09/18 10:42:59;;;;;;;5.47;1.30;;;;;;;12.26;100.00;95919.47;10352925;28;20221;-73
2022/09/18 10:48:13;;;;;;;5.85;1.35;;;;;;;11.90;94.05;95880.91;10337222;28;20193;-73
2022/09/18 10:53:20;;;;;;;6.07;1.40;;;;;;;12.37;90.32;95849.88;10352821;28;20209;-74
2022/09/18 10:58:29;;;;;;;3.42;1.20;;;;;;;13.08;92.76;95894.50;10336849;28;20236;-73
2022/09/18 11:03:37;;;;;;;5.63;1.27;;;;;;;11.56;94.49;95927.72;10351778;28;20308;-73
2022/09/18 11:08:42;;;;;;;2.53;1.10;;;;;;;11.05;100.00;95975.59;10352403;28;20464;-73
2022/09/18 11:13:51;;;;;;;5.00;1.77;;;;;;;10.51;100.00;95939.06;10336008;28;20189;-73
2022/09/18 11:19:01;;;;;;;5.37;1.03;;;;;;;10.58;100.00;95974.03;10351955;28;20673;-73
2022/09/18 11:24:04;;;;;;;4.30;1.10;;;;;;;12.17;100.00;95938.97;10335232;28;20748;-72
2022/09/18 11:29:16;;;;;;;4.57;1.10;;;;;;;12.48;100.00;95921.09;10351848;28;20190;-73
2022/09/18 11:34:27;;;;;;;3.47;1.00;;;;;;;10.89;97.62;95902.38;10350874;28;20656;-73
2022/09/18 11:39:41;;;;;;;6.97;1.20;;;;;;;12.11;100.00;95890.63;10335645;28;20189;-73
2022/09/18 11:44:42;;;;;;;3.03;0.90;;;;;;;11.77;99.70;95892.06;10334772;28;20756;-73
2022/09/18 11:49:46;;;;;;;8.40;3.13;;;;;;;11.64;97.12;95873.53;10335125;28;20287;-73
2022/09/18 11:55:07;;;;;;;6.28;1.45;;;;;;;12.35;95.18;95852.69;10350069;28;20189;-74
2022/09/18 12:00:12;;;;;;;3.78;1.42;;;;;;;12.06;97.95;95867.56;10350392;28;20808;-74
2022/09/18 12:05:34;;;;;;;2.55;1.20;;;;;;;12.49;95.37;95840.47;10367616;28;20580;-73
2022/09/18 12:11:00;;;;;;;4.68;1.17;;;;;;;12.18;96.66;95848.72;10334216;28;20598;-73
2022/09/18 12:16:10;;;;;;;2.55;1.08;;;;;;;13.12;86.32;95780.00;10349220;28;20185;-73
2022/09/18 12:21:15;;;;;;;2.58;1.00;;;;;;;12.21;87.74;95836.00;10334070;28;20677;-73
2022/09/18 12:26:21;;;;;;;1.92;0.88;;;;;;;11.16;100.00;95897.53;10333757;28;20664;-74
2022/09/18 12:31:51;;;;;;;4.18;0.80;;;;;;;11.80;100.00;95899.56;10349959;28;20193;-73
2022/09/18 12:37:16;;;;;;;1.05;0.80;;;;;;;12.30;100.00;95866.38;10366867;28;20575;-73
2022/09/18 12:42:52;;;;;;;2.78;1.13;;;;;;;11.37;93.79;95818.94;10357707;28;20573;-73
2022/09/18 12:48:16;;;;;;;3.97;1.38;;;;;;;10.64;100.00;95910.47;10367721;28;20562;-73
2022/09/18 12:53:23;;;;;;;6.60;1.53;;;;;;;10.25;100.00;95937.56;10366501;28;20613;-73
2022/09/18 12:58:51;;;;;;;3.30;1.70;;;;;;;10.07;100.00;95916.06;10367309;28;20643;-73
2022/09/18 13:03:54;;;;;;;2.37;1.43;;;;;;;10.61;100.00;95913.44;10366104;28;20217;-73
2022/09/18 13:08:57;;;;;;;3.10;1.43;;;;;;;10.32;100.00;95899.22;10349538;28;20235;-73
2022/09/18 13:14:08;;;;;;;4.63;1.67;;;;;;;10.40;100.00;95897.53;10348585;28;20677;-73
2022/09/18 13:19:13;;;;;;;4.70;1.70;;;;;;;11.11;100.00;95886.78;10366462;28;20535;-73
2022/09/18 13:24:28;;;;;;;3.25;1.60;;;;;;;12.09;100.00;95861.94;10350858;28;20232;-73
2022/09/18 13:30:11;;;;;;;2.72;1.42;;;;;;;10.94;100.00;95844.19;10356341;28;20255;-73
2022/09/18 13:35:11;;;;;;;4.38;1.63;;;;;;;10.24;100.00;95860.00;10344133;28;20247;-73
2022/09/18 13:40:34;;;;;;;4.63;1.80;;;;;;;10.06;100.00;95846.41;10372923;28;20193;-73
2022/09/18 13:45:36;;;;;;;8.20;1.10;;;;;;;10.85;100.00;95841.66;10355038;28;20225;-73
2022/09/18 13:50:47;;;;;;;3.25;1.30;;;;;;;10.58;100.00;95847.50;10372511;28;20273;-73
2022/09/18 13:55:49;;;;;;;2.33;1.30;;;;;;;10.03;100.00;95846.75;10354883;28;20193;-73
2022/09/18 14:00:49;;;;;;;3.23;1.20;;;;;;;9.73;100.00;95857.09;10372110;28;20233;-73
2022/09/18 14:05:50;;;;;;;8.90;1.90;;;;;;;10.08;100.00;95857.53;10371901;28;20202;-72
2022/09/18 14:11:09;;;;;;;4.07;1.50;;;;;;;9.99;100.00;95857.56;10371742;28;20208;-73
2022/09/18 14:16:18;;;;;;;4.40;1.73;;;;;;;9.94;100.00;95846.00;10354281;28;20665;-74
2022/09/18 14:21:25;;;;;;;2.47;1.10;;;;;;;9.80;100.00;95856.22;10371483;28;20603;-74
2022/09/18 14:26:36;;;;;;;2.23;1.20;;;;;;;9.86;100.00;95859.94;10353827;28;20189;-73
2022/09/18 14:31:44;;;;;;;11.23;1.60;;;;;;;9.80;100.00;95837.91;10370413;28;20664;-73
2022/09/18 14:36:47;;;;;;;2.60;1.00;;;;;;;9.66;100.00;95863.97;10370095;28;20304;-74
2022/09/18 14:41:48;;;;;;;1.00;0.90;;;;;;;9.19;100.00;95856.03;10370726;28;20308;-74
2022/09/18 14:46:57;;;;;;;2.43;1.10;;;;;;;8.91;100.00;95868.66;10330073;28;20287;-74
2022/09/18 14:51:57;;;;;;;2.37;1.10;;;;;;;8.76;100.00;95876.38;10329573;28;20191;-73
2022/09/18 14:57:00;;;;;;;0.70;0.70;;;;;;;8.51;100.00;95871.16;10312453;28;20186;-73
2022/09/18 15:02:18;;;;;;;1.17;1.00;;;;;;;8.47;100.00;95871.66;10327783;28;20565;-72
2022/09/18 15:07:20;;;;;;;3.20;1.00;;;;;;;8.31;100.00;95864.63;10329510;28;20198;-73
2022/09/18 15:12:22;;;;;;;1.07;0.97;;;;;;;8.14;100.00;95872.44;10328808;28;20638;-73
2022/09/18 15:17:27;;;;;;;2.10;1.17;;;;;;;7.95;100.00;95862.34;10328795;28;20546;-73
2022/09/18 15:22:28;;;;;;;1.23;1.10;;;;;;;8.00;100.00;95868.69;10328175;28;20697;-73
2022/09/18 15:27:29;;;;;;;1.90;1.30;;;;;;;7.79;100.00;95869.13;10328849;28;20196;-74
2022/09/18 15:32:32;;;;;;;4.53;1.80;;;;;;;7.80;100.00;95869.97;10327872;28;20555;-74
2022/09/18 15:37:33;;;;;;;1.43;1.27;;;;;;;7.75;100.00;95882.66;10328189;28;20316;-74
2022/09/18 15:42:40;;;;;;;2.03;1.43;;;;;;;7.81;100.00;95880.25;10327533;28;20221;-74
2022/09/18 15:47:41;;;;;;;1.10;1.10;;;;;;;7.60;100.00;95887.69;10326133;28;20194;-74
2022/09/18 15:52:47;;;;;;;1.33;1.03;;;;;;;7.46;100.00;95884.69;10327419;28;20197;-75
2022/09/18 15:57:56;;;;;;;1.50;1.20;;;;;;;7.35;100.00;95881.53;10326830;28;20194;-75
2022/09/18 16:03:03;;;;;;;3.00;1.07;;;;;;;7.17;100.00;95879.03;10309431;28;20736;-75
2022/09/18 16:08:19;;;;;;;4.13;1.47;;;;;;;7.06;100.00;95870.53;10327318;28;20659;-75
2022/09/18 16:13:19;;;;;;;3.33;1.10;;;;;;;7.02;100.00;95860.56;10309216;28;20646;-75
2022/09/18 16:18:28;;;;;;;2.23;1.67;;;;;;;7.00;100.00;95849.47;10309737;28;20202;-75
2022/09/18 16:23:50;;;;;;;4.73;1.90;;;;;;;7.02;100.00;95850.16;10309018;28;20488;-75
2022/09/18 16:29:00;;;;;;;1.77;1.10;;;;;;;6.96;100.00;95854.19;10326866;28;20198;-75
2022/09/18 16:34:15;;;;;;;1.83;1.30;;;;;;;6.93;100.00;95857.09;10308749;28;20252;-75
2022/09/18 16:39:18;;;;;;;3.03;1.17;;;;;;;6.93;100.00;95852.72;10309517;28;20490;-75
2022/09/18 16:44:18;;;;;;;1.77;1.43;;;;;;;6.86;100.00;95859.53;10325988;28;20229;-75
2022/09/18 16:49:24;;;;;;;2.40;1.63;;;;;;;6.84;100.00;95848.44;10326872;28;20190;-74
2022/09/18 16:54:25;;;;;;;0.70;0.70;;;;;;;6.76;100.00;95851.81;10326441;28;20600;-75
2022/09/18 16:59:28;;;;;;;1.30;1.20;;;;;;;6.71;100.00;95841.06;10328498;28;20285;-75
2022/09/18 17:04:28;;;;;;;1.00;1.00;;;;;;;6.76;100.00;95843.19;10333125;28;20666;-76
2022/09/18 17:09:29;;;;;;;3.47;0.90;;;;;;;6.67;100.00;95833.69;10316515;28;20204;-75
2022/09/18 17:14:29;;;;;;;1.47;1.00;;;;;;;6.62;100.00;95834.16;10333355;28;20190;-75
2022/09/18 17:19:29;;;;;;;1.83;0.93;;;;;;;6.67;100.00;95844.91;10315817;28;20591;-75
2022/09/18 17:24:30;;;;;;;0.80;0.80;;;;;;;6.57;100.00;95852.84;10332226;28;20236;-75
2022/09/18 17:29:30;;;;;;;0.80;0.80;;;;;;;6.49;100.00;95852.75;10333360;28;20205;-75
2022/09/18 17:34:31;;;;;;;2.30;1.87;;;;;;;6.41;100.00;95858.72;10331560;28;20202;-75
2022/09/18 17:39:31;;;;;;;1.00;0.80;;;;;;;6.35;100.00;95854.13;10332691;28;20200;-75
2022/09/18 17:44:34;;;;;;;2.93;1.40;;;;;;;6.35;100.00;95848.94;10332174;28;20218;-75
2022/09/18 17:49:34;;;;;;;2.00;1.23;;;;;;;6.23;100.00;95843.19;10332392;28;20206;-75
2022/09/18 17:54:35;;;;;;;1.37;1.00;;;;;;;6.28;100.00;95845.31;10331901;28;20274;-74
2022/09/18 17:59:35;;;;;;;2.40;1.07;;;;;;;6.24;100.00;95844.78;10331488;28;20233;-75
2022/09/18 18:04:35;;;;;;;0.70;0.70;;;;;;;6.20;100.00;95853.03;10331742;28;20236;-75
2022/09/18 18:09:36;;;;;;;1.33;0.80;;;;;;;6.15;100.00;95853.50;10329482;28;20198;-75
2022/09/18 18:14:36;;;;;;;1.10;0.73;;;;;;;6.24;100.00;95862.19;10330872;28;20197;-75
2022/09/18 18:19:37;;;;;;;0.70;0.70;;;;;;;6.24;100.00;95860.41;10331378;28;20304;-75
2022/09/18 18:24:38;;;;;;;3.17;1.13;;;;;;;6.27;100.00;95859.28;10330293;28;20225;-75
2022/09/18 18:29:39;;;;;;;1.40;0.97;;;;;;;6.13;100.00;95852.03;10331147;28;20198;-75
2022/09/18 18:34:40;;;;;;;2.47;1.93;;;;;;;6.11;100.00;95857.38;10329714;28;20222;-75
2022/09/18 18:39:40;;;;;;;1.10;1.00;;;;;;;6.02;100.00;95866.88;10330588;28;20568;-74
2022/09/18 18:44:41;;;;;;;1.20;1.10;;;;;;;5.94;100.00;95860.75;10329719;28;20225;-74
2022/09/18 18:49:41;;;;;;;0.83;0.83;;;;;;;5.96;100.00;95869.25;10330094;28;20296;-74
2022/09/18 18:54:41;;;;;;;1.13;1.03;;;;;;;5.97;100.00;95866.53;10329248;28;20666;-73
2022/09/18 18:59:42;;;;;;;3.13;1.00;;;;;;;6.07;100.00;95859.44;10329498;28;20285;-73
2022/09/18 19:04:43;;;;;;;1.00;0.90;;;;;;;6.10;100.00;95858.34;10327113;28;20230;-74
2022/09/18 19:09:43;;;;;;;0.80;0.80;;;;;;;5.98;100.00;95872.53;10329352;28;20677;-73
2022/09/18 19:14:44;;;;;;;1.33;1.23;;;;;;;5.95;100.00;95868.41;10328869;28;20190;-74
2022/09/18 19:19:45;;;;;;;2.63;1.00;;;;;;;5.99;100.00;95876.78;10311720;28;20190;-74
2022/09/18 19:24:45;;;;;;;0.90;0.90;;;;;;;6.10;100.00;95870.53;10328220;28;20312;-73
2022/09/18 19:29:47;;;;;;;2.10;1.13;;;;;;;6.16;100.00;95869.94;10328697;28;20840;-73
2022/09/18 19:34:48;;;;;;;1.53;1.10;;;;;;;6.29;100.00;95869.53;10327845;28;20213;-73
2022/09/18 19:39:49;;;;;;;2.67;1.07;;;;;;;6.39;100.00;95860.69;10310762;28;20594;-74
2022/09/18 19:44:52;;;;;;;1.60;1.30;;;;;;;6.25;100.00;95843.03;10327669;28;20313;-74
2022/09/18 19:49:54;;;;;;;1.40;1.13;;;;;;;6.11;100.00;95851.34;10310737;28;20802;-74
2022/09/18 19:54:56;;;;;;;1.20;1.10;;;;;;;6.12;100.00;95843.41;10326517;28;20183;-74
2022/09/18 19:59:58;;;;;;;3.23;1.30;;;;;;;6.05;100.00;95834.59;10327481;28;20245;-74
2022/09/18 20:04:58;;;;;;;1.70;0.90;;;;;;;5.92;100.00;95836.72;10310396;28;20240;-73
2022/09/18 20:09:59;;;;;;;2.10;1.17;;;;;;;5.87;100.00;95834.56;10327664;28;20194;-73
2022/09/18 20:15:01;;;;;;;1.70;1.10;;;;;;;5.93;100.00;95831.34;10327087;28;20189;-73
2022/09/18 20:20:03;;;;;;;2.20;1.30;;;;;;;5.92;100.00;95824.50;10326786;28;20197;-74
2022/09/18 20:25:03;;;;;;;1.53;1.20;;;;;;;5.83;100.00;95838.41;10327256;28;20312;-75
2022/09/18 20:30:06;;;;;;;3.43;1.30;;;;;;;5.86;100.00;95830.31;10326804;28;20277;-74
2022/09/18 20:35:07;;;;;;;2.40;1.47;;;;;;;5.74;100.00;95827.09;10330590;28;20248;-73
2022/09/18 20:40:12;;;;;;;3.00;1.30;;;;;;;5.75;100.00;95828.75;10334907;28;20289;-74
2022/09/18 20:45:12;;;;;;;2.87;1.33;;;;;;;5.69;100.00;95814.56;10335195;28;20213;-73
2022/09/18 20:50:13;;;;;;;2.43;1.10;;;;;;;5.76;100.00;95820.00;10334394;28;20198;-74
2022/09/18 20:55:15;;;;;;;5.23;1.70;;;;;;;5.72;100.00;95819.47;10334755;28;20281;-73
2022/09/18 21:00:16;;;;;;;4.60;1.70;;;;;;;5.74;100.00;95824.50;10334087;28;20264;-74
2022/09/18 21:05:17;;;;;;;1.63;1.53;;;;;;;5.79;100.00;95824.06;10334159;28;20631;-73
2022/09/18 21:10:17;;;;;;;5.87;1.77;;;;;;;5.84;100.00;95825.25;10334496;28;20600;-74
2022/09/18 21:15:17;;;;;;;3.93;1.90;;;;;;;5.87;100.00;95818.97;10333924;28;20185;-73
2022/09/18 21:20:19;;;;;;;3.30;1.63;;;;;;;5.82;100.00;95828.97;10334233;28;20206;-73
2022/09/18 21:25:20;;;;;;;3.33;1.60;;;;;;;5.77;100.00;95826.81;10334173;28;20317;-73
2022/09/18 21:30:22;;;;;;;3.43;1.80;;;;;;;5.87;100.00;95824.16;10333271;28;20187;-73
2022/09/18 21:35:22;;;;;;;1.50;1.40;;;;;;;5.85;100.00;95826.91;10332572;28;20206;-73
2022/09/18 21:40:23;;;;;;;2.23;1.80;;;;;;;5.84;100.00;95824.44;10332676;28;20218;-73
2022/09/18 21:45:23;;;;;;;1.57;1.47;;;;;;;5.89;100.00;95807.44;10331456;28;20567;-73
2022/09/18 21:50:24;;;;;;;2.13;1.80;;;;;;;5.87;100.00;95822.38;10315160;28;20194;-73
2022/09/18 21:55:24;;;;;;;2.13;1.70;;;;;;;5.87;100.00;95809.38;10332500;28;20186;-74
2022/09/18 22:00:25;;;;;;;1.60;1.50;;;;;;;5.84;100.00;95806.25;10331999;28;20233;-73
2022/09/18 22:05:28;;;;;;;3.50;1.60;;;;;;;5.88;100.00;95810.19;10331797;28;20283;-73
2022/09/18 22:10:28;;;;;;;2.17;1.53;;;;;;;6.00;100.00;95816.00;10331794;28;20204;-74
2022/09/18 22:15:29;;;;;;;7.83;1.50;;;;;;;6.02;100.00;95801.88;10331154;28;20645;-73
2022/09/18 22:20:29;;;;;;;5.70;1.53;;;;;;;6.00;100.00;95797.81;10331092;28;20677;-74
2022/09/18 22:25:30;;;;;;;3.63;1.27;;;;;;;5.97;100.00;95801.53;10331294;28;20236;-73
2022/09/18 22:30:31;;;;;;;1.80;1.30;;;;;;;6.04;100.00;95809.53;10330491;28;20185;-73
2022/09/18 22:35:31;;;;;;;1.43;1.30;;;;;;;6.13;100.00;95800.84;10330765;28;20210;-74
2022/09/18 22:40:32;;;;;;;3.47;1.30;;;;;;;6.27;100.00;95804.66;10313076;28;20194;-73
2022/09/18 22:45:32;;;;;;;1.10;1.07;;;;;;;6.29;100.00;95804.50;10330309;28;20214;-73
2022/09/18 22:50:32;;;;;;;2.20;1.63;;;;;;;6.36;100.00;95808.16;10330125;28;20286;-73
2022/09/18 22:55:33;;;;;;;6.00;1.40;;;;;;;6.35;100.00;95809.91;10330104;28;20193;-73
2022/09/18 23:00:33;;;;;;;2.87;1.83;;;;;;;6.37;100.00;95808.00;10329316;28;20233;-73
2022/09/18 23:05:38;;;;;;;2.23;1.33;;;;;;;6.34;100.00;95803.09;10312351;28;20217;-73
2022/09/18 23:10:39;;;;;;;1.27;1.20;;;;;;;6.39;100.00;95808.66;10329088;28;20186;-73
2022/09/18 23:15:39;;;;;;;1.77;1.10;;;;;;;6.21;100.00;95807.88;10329448;28;20182;-73
2022/09/18 23:20:39;;;;;;;3.03;1.30;;;;;;;6.15;100.00;95804.09;10335717;28;20221;-74
2022/09/18 23:25:40;;;;;;;1.83;1.10;;;;;;;6.06;100.00;95805.84;10330035;28;20316;-74
2022/09/18 23:30:40;;;;;;;5.03;1.10;;;;;;;6.04;100.00;95801.75;10328061;28;20194;-73
2022/09/18 23:35:40;;;;;;;1.10;1.00;;;;;;;5.92;100.00;95801.13;10328215;28;20256;-73